Fallon, NV

8:55 PM PDT on August 22, 2014 (GMT -0700)
Derby | Change Station
CLOSE
Current Station
Airport
Location: Lovelock,
Elevation: 3904 ft
Nearby Weather Stations
Active Advisory: Lake Wind Advisory

Elev 3904 ft 40.07 °N, 118.57 °W | Updated 1 hour ago

Mostly Cloudy
Mostly Cloudy
79 °F
Feels Like 79 °F
N
21
Wind Variable Wind from WNW
Gusts 28 mph

Today
High -- | Low -- °F
--% Chance of Precip.
Yesterday
High -- | Low -- °F
Precip. -- in
6:14 AM 7:40 PM
Waning Crescent, 5% visible
Pressure 29.81 in
Visibility 9.0 miles
Clouds Mostly Cloudy 11000 ft
Dew Point 40 °F
Humidity 25%
Rainfall 0.00 in
Snow Depth Not available.
UV 0 out of 12
Pollen 7.90 out of 12
Air Quality Not available.
Flu Activity Not available.
METAR KLOL 230253Z AUTO 30018G24KT 9SM BKN110 26/04 A2992 RMK AO2 PK WND 32028/0223 PRESRR SLP093 T02610044 53016

More Conditions Fewer Conditions

Pressure 29.81 in
Visibility 9.0 miles
Clouds Mostly Cloudy 11000 ft
Dew Point 40 °F
Humidity 25%
Rainfall 0.00 in
Snow Depth Not available.
UV 0 out of 12
Pollen 7.90 out of 12
Air Quality Not available.
Flu Activity Not available.
METAR KLOL 230253Z AUTO 30018G24KT 9SM BKN110 26/04 A2992 RMK AO2 PK WND 32028/0223 PRESRR SLP093 T02610044 53016

More Conditions Fewer Conditions

10-Day Weather Forecast

Almanac

Astronomy

Aug. 22, 2014 Rise Set
Actual Time 6:14 AM PDT 7:40 PM PDT
Civil Twilight 5:46 AM PDT 8:09 PM PDT
Nautical Twilight 5:12 AM PDT 8:42 PM PDT
Astronomical Twilight 4:36 AM PDT 9:18 PM PDT
Moon 3:41 AM PDT (8/22) 5:52 PM PDT (8/22)
Length of Visible Light 14h 22m
Length of Day
13h 26m
Tomorrow will be 2m 22s shorter.
Waning Crescent, 5% of the Moon is Illuminated
Today
Waning Crescent
Aug 25
New
Sep 2
First Quarter
Sep 8
Full
Sep 15
Last Quarter

Today's Extremes

State Highs State Lows

Community

WunderPhotos

Upload Photos

1,746,352 photos uploaded!

WunderBlogs® & News

Nearby

Snow Depth

Station Depth Elevation
Big Creek Summit 0 in 8700 ft
Lamance Creek 1 in 6000 ft
Diamond Peak 1 in 8000 ft
Granite Peak 1 in 7800 ft
Buckskin Lower 3 in 6700 ft

Earthquake Activity

City Distance Mag. Time & Date
No recent earthquake activity has been reported nearby.
Minimum magnitude displayed is 2.5.

Coastal Water Temperatures

Place Temperature
No Stations Reporting

Nearby Weather Stations